Terminal Aerodrome Forecast
Issued by NWS

Home | Current Version | Previous Version | Text Only | Print | Product List | Glossary On
Versions: 1 2 3 4 5 6 7 8 9 10 11 12 13 14 15 16 17 18 19 20 21 22 23 24 25 26 27 28 29 30 31 32 33 34
000
FTUS41 KBOX 300826 AAA
TAFHYA
TAF AMD
KHYA 300826Z 3008/3106 20005KT 1/4SM FG BKN002
     FM301100 22008KT 2SM BR BKN003
     FM301300 22010KT P6SM BKN003
     FM302100 21016KT P6SM SCT008
     FM310100 21015KT P6SM SCT250
     FM310300 21015KT 3SM BR SCT250=

USA.gov is the U.S. government's official web portal to all federal, state and local government web resources and services.